createdAt,value
2019-02-04T00:05:07.675Z,101589
2019-02-04T00:10:30.396Z,101585
2019-02-04T00:15:54.026Z,101589
2019-02-04T00:21:17.051Z,101592
2019-02-04T00:26:50.924Z,101591
2019-02-04T00:32:03.670Z,101590
2019-02-04T00:37:26.381Z,101602
2019-02-04T00:42:49.070Z,101617
2019-02-04T00:48:11.701Z,101618
2019-02-04T00:53:34.755Z,101621
2019-02-04T00:58:57.623Z,101622
2019-02-04T01:04:20.429Z,101628
2019-02-04T01:09:43.179Z,101635
2019-02-04T01:15:05.936Z,101638
2019-02-04T01:20:28.658Z,101638
2019-02-04T01:25:51.310Z,101640
2019-02-04T01:31:13.996Z,101647
2019-02-04T01:36:37.053Z,101666
2019-02-04T01:42:00.130Z,101669
2019-02-04T01:47:23.608Z,101670
2019-02-04T01:52:46.304Z,101673
2019-02-04T01:58:09.171Z,101682
2019-02-04T02:03:31.824Z,101684
2019-02-04T02:08:54.777Z,101692
2019-02-04T02:14:17.816Z,101691
2019-02-04T02:19:40.560Z,101697
2019-02-04T02:25:03.881Z,101699
2019-02-04T02:30:26.646Z,101698
2019-02-04T02:35:49.244Z,101690
2019-02-04T02:41:11.949Z,101693
2019-02-04T02:46:34.650Z,101684
2019-02-04T02:51:57.524Z,101683
2019-02-04T02:57:20.621Z,101688
2019-02-04T03:02:43.824Z,101691
2019-02-04T03:08:06.497Z,101687
2019-02-04T03:13:29.221Z,101691
2019-02-04T03:18:52.242Z,101701
2019-02-04T03:24:15.256Z,101702
2019-02-04T03:29:38.053Z,101696
2019-02-04T03:35:00.835Z,101699
2019-02-04T03:40:24.246Z,101686
2019-02-04T03:45:47.122Z,101683
2019-02-04T03:51:09.966Z,101685
2019-02-04T03:56:32.718Z,101692
2019-02-04T04:01:55.492Z,101703
2019-02-04T04:07:19.302Z,101698
2019-02-04T04:12:42.717Z,101690
2019-02-04T04:18:15.289Z,101695
2019-02-04T04:23:29.267Z,101691
2019-02-04T04:28:52.779Z,101694
2019-02-04T04:34:15.654Z,101682
2019-02-04T04:39:38.429Z,101686
2019-02-04T04:45:01.298Z,101682
2019-02-04T04:50:24.186Z,101676
2019-02-04T04:55:46.869Z,101667
2019-02-04T05:01:09.887Z,101665
2019-02-04T05:06:32.613Z,101670
2019-02-04T05:11:56.199Z,101668
2019-02-04T05:17:19.497Z,101671
2019-02-04T05:22:42.689Z,101672
2019-02-04T05:28:05.900Z,101673
2019-02-04T05:33:28.592Z,101672
2019-02-04T05:38:51.305Z,101674
2019-02-04T05:44:14.441Z,101677
2019-02-04T05:49:46.531Z,101679
2019-02-04T05:55:09.448Z,101690
2019-02-04T06:00:43.623Z,101685
2019-02-04T06:06:18.574Z,101685
2019-02-04T06:11:51.448Z,101700
2019-02-04T06:17:14.214Z,101700
2019-02-04T06:22:37.015Z,101707
2019-02-04T06:28:08.967Z,101708
2019-02-04T06:33:41.419Z,101713
2019-02-04T06:39:13.274Z,101713
2019-02-04T06:44:35.986Z,101707
2019-02-04T06:49:58.964Z,101707
2019-02-04T06:55:31.456Z,101705
2019-02-04T07:01:06.979Z,101704
2019-02-04T07:06:41.498Z,101705
2019-02-04T07:12:04.260Z,101700
2019-02-04T07:17:36.971Z,101695
2019-02-04T07:23:08.720Z,101691
2019-02-04T07:28:42.341Z,101696
2019-02-04T07:34:15.093Z,101690
2019-02-04T07:39:48.058Z,101690
2019-02-04T07:45:10.810Z,101682
2019-02-04T07:50:43.201Z,101672
2019-02-04T07:56:17.311Z,101666
2019-02-04T08:01:49.310Z,101664
2019-02-04T08:07:21.936Z,101666
2019-02-04T08:13:01.232Z,101680
2019-02-04T08:18:49.580Z,101683
2019-02-04T08:24:23.775Z,101685
2019-02-04T08:29:57.548Z,101691
2019-02-04T08:35:30.841Z,101694
2019-02-04T08:41:04.157Z,101691
2019-02-04T08:46:36.978Z,101683
2019-02-04T08:52:10.337Z,101682
2019-02-04T08:57:42.454Z,101674
2019-02-04T09:03:14.177Z,101667
2019-02-04T09:08:45.911Z,101660
2019-02-04T09:14:17.687Z,101662
2019-02-04T09:19:49.866Z,101656
2019-02-04T09:25:12.697Z,101641
2019-02-04T09:30:36.345Z,101635
2019-02-04T09:35:59.062Z,101629
2019-02-04T09:41:21.740Z,101629
2019-02-04T09:46:44.758Z,101634
2019-02-04T09:52:07.451Z,101628
2019-02-04T09:57:30.644Z,101615
2019-02-04T10:02:53.402Z,101608
2019-02-04T10:08:16.085Z,101610
2019-02-04T10:13:39.760Z,101610
2019-02-04T10:19:03.300Z,101613
2019-02-04T10:24:26.786Z,101602
2019-02-04T10:29:49.577Z,101603
2019-02-04T10:35:16.733Z,101597
2019-02-04T10:40:36.172Z,101599
2019-02-04T10:45:59.044Z,101593
2019-02-04T10:51:23.957Z,101580
2019-02-04T10:56:47.902Z,101577
2019-02-04T11:02:11.389Z,101575
2019-02-04T11:07:33.504Z,101579
2019-02-04T11:12:56.437Z,101574
2019-02-04T11:18:19.193Z,101570
2019-02-04T11:23:41.992Z,101556
2019-02-04T11:29:04.820Z,101559
2019-02-04T11:34:27.609Z,101553
2019-02-04T11:39:50.283Z,101556
2019-02-04T11:45:13.063Z,101544
2019-02-04T11:50:36.360Z,101540
2019-02-04T11:55:59.422Z,101542
2019-02-04T12:01:22.258Z,101538
2019-02-04T12:06:45.320Z,101539
2019-02-04T12:12:08.306Z,101532
2019-02-04T12:17:30.920Z,101523
2019-02-04T12:22:53.598Z,101513
2019-02-04T12:28:16.764Z,101512
2019-02-04T12:33:40.320Z,101504
2019-02-04T12:39:03.344Z,101496
2019-02-04T12:44:27.044Z,101491
2019-02-04T12:49:49.736Z,101497
2019-02-04T12:55:12.561Z,101489
2019-02-04T13:00:34.847Z,101491
2019-02-04T13:05:58.328Z,101491
2019-02-04T13:11:20.987Z,101495
2019-02-04T13:16:44.434Z,101491
2019-02-04T13:22:07.927Z,101483
2019-02-04T13:27:30.668Z,101476
2019-02-04T13:32:53.466Z,101476
2019-02-04T13:38:18.004Z,101470
2019-02-04T13:43:41.244Z,101471
2019-02-04T13:49:04.077Z,101457
2019-02-04T13:54:26.768Z,101456
2019-02-04T13:59:49.741Z,101456
2019-02-04T14:05:12.441Z,101445
2019-02-04T14:10:35.179Z,101442
2019-02-04T14:15:57.868Z,101427
2019-02-04T14:21:20.804Z,101435
2019-02-04T14:26:43.601Z,101431
2019-02-04T14:32:06.195Z,101421
2019-02-04T14:37:29.016Z,101413
2019-02-04T14:42:51.711Z,101400
2019-02-04T14:48:14.937Z,101410
2019-02-04T14:53:37.637Z,101409
2019-02-04T14:59:00.384Z,101402
2019-02-04T15:04:23.038Z,101403
2019-02-04T15:09:45.865Z,101398
2019-02-04T15:15:08.558Z,101403
2019-02-04T15:20:31.253Z,101391
2019-02-04T15:25:53.953Z,101384
2019-02-04T15:31:16.754Z,101382
2019-02-04T15:36:39.477Z,101365
2019-02-04T15:42:02.223Z,101353
2019-02-04T15:47:26.014Z,101346
2019-02-04T15:52:48.768Z,101340
2019-02-04T15:58:11.991Z,101347
2019-02-04T16:03:34.647Z,101337
2019-02-04T16:08:57.421Z,101347
2019-02-04T16:14:21.614Z,101349
2019-02-04T16:19:44.671Z,101345
2019-02-04T16:25:07.322Z,101343
2019-02-04T16:30:30.029Z,101335
2019-02-04T16:35:52.784Z,101338
2019-02-04T16:41:15.515Z,101341
2019-02-04T16:46:38.934Z,101354
2019-02-04T16:52:01.655Z,101364
2019-02-04T16:57:24.918Z,101381
2019-02-04T17:02:47.930Z,101367
2019-02-04T17:08:10.769Z,101365
2019-02-04T17:13:35.606Z,101368
2019-02-04T17:18:58.549Z,101384
2019-02-04T17:24:21.420Z,101378
2019-02-04T17:29:44.142Z,101376
2019-02-04T17:35:08.084Z,101373
2019-02-04T17:40:30.777Z,101360
2019-02-04T17:45:53.631Z,101355
2019-02-04T17:51:16.573Z,101341
2019-02-04T17:56:39.319Z,101342
2019-02-04T18:02:02.358Z,101344
2019-02-04T18:07:26.316Z,101338
2019-02-04T18:12:49.142Z,101345
2019-02-04T18:18:12.057Z,101347
2019-02-04T18:23:45.307Z,101341
2019-02-04T18:28:58.324Z,101331
2019-02-04T18:34:21.926Z,101333
2019-02-04T18:39:45.285Z,101328
2019-02-04T18:45:07.984Z,101331
2019-02-04T18:50:30.912Z,101341
2019-02-04T18:55:53.727Z,101343
2019-02-04T19:01:16.846Z,101346
2019-02-04T19:06:47.292Z,101350
2019-02-04T19:12:03.737Z,101343
2019-02-04T19:17:26.433Z,101342
2019-02-04T19:22:50.336Z,101329
2019-02-04T19:28:22.301Z,101332
2019-02-04T19:33:45.020Z,101340
2019-02-04T19:39:07.901Z,101337
2019-02-04T19:44:30.738Z,101348
2019-02-04T19:49:53.502Z,101333
2019-02-04T19:55:16.245Z,101346
2019-02-04T20:00:38.931Z,101340
2019-02-04T20:06:03.007Z,101344
2019-02-04T20:11:25.757Z,101350
2019-02-04T20:16:48.508Z,101350
2019-02-04T20:22:11.153Z,101362
2019-02-04T20:27:33.882Z,101363
2019-02-04T20:32:56.608Z,101369
2019-02-04T20:38:20.206Z,101367
2019-02-04T20:43:44.220Z,101372
2019-02-04T20:49:07.016Z,101372
2019-02-04T20:54:29.910Z,101375
2019-02-04T20:59:53.616Z,101374
2019-02-04T21:05:16.978Z,101376
2019-02-04T21:10:39.829Z,101377
2019-02-04T21:16:02.593Z,101390
2019-02-04T21:21:25.355Z,101393
2019-02-04T21:26:48.092Z,101383
2019-02-04T21:32:11.103Z,101399
2019-02-04T21:37:33.863Z,101416
2019-02-04T21:42:56.739Z,101407
2019-02-04T21:48:19.710Z,101411
2019-02-04T21:53:42.423Z,101412
2019-02-04T21:59:05.478Z,101417
2019-02-04T22:04:28.415Z,101416
2019-02-04T22:09:51.110Z,101427
2019-02-04T22:15:14.539Z,101415
2019-02-04T22:20:37.217Z,101405
2019-02-04T22:25:59.906Z,101401
2019-02-04T22:31:22.731Z,101401
2019-02-04T22:36:45.548Z,101404
2019-02-04T22:42:08.346Z,101390
2019-02-04T22:47:31.733Z,101400
2019-02-04T22:52:54.480Z,101416
2019-02-04T22:58:18.179Z,101425
2019-02-04T23:03:41.810Z,101428
2019-02-04T23:09:07.469Z,101432
2019-02-04T23:14:27.633Z,101426
2019-02-04T23:19:50.387Z,101422
2019-02-04T23:25:14.029Z,101412
2019-02-04T23:30:36.747Z,101427
2019-02-04T23:35:59.419Z,101428
2019-02-04T23:41:22.230Z,101427
2019-02-04T23:46:44.923Z,101429
2019-02-04T23:52:07.717Z,101436
2019-02-04T23:57:30.471Z,101433
